createdAt,value
2016-05-18T00:00:08.134Z,91.69
2016-05-18T00:00:18.134Z,90.98
2016-05-18T00:00:28.150Z,90.93
2016-05-18T00:00:38.150Z,91.6
2016-05-18T00:00:48.166Z,91.31
2016-05-18T00:00:58.150Z,91.65
2016-05-18T00:01:08.168Z,91.41
2016-05-18T00:01:18.168Z,91.46
2016-05-18T00:01:28.168Z,91.27
2016-05-18T00:01:38.183Z,91.27
2016-05-18T00:01:48.183Z,91.46
2016-05-18T00:01:58.183Z,91.36
2016-05-18T00:02:08.203Z,91.46
2016-05-18T00:02:18.203Z,91.27
2016-05-18T00:02:28.203Z,91.08
2016-05-18T00:02:38.219Z,91.94
2016-05-18T00:02:48.219Z,92.03
2016-05-18T00:02:58.219Z,91.84
2016-05-18T00:03:08.221Z,91.84
2016-05-18T00:03:18.236Z,91.55
2016-05-18T00:03:28.236Z,91.46
2016-05-18T00:03:38.236Z,91.55
2016-05-18T00:03:48.236Z,91.65
2016-05-18T00:03:58.252Z,91.74
2016-05-18T00:04:08.255Z,91.55
2016-05-18T00:04:18.270Z,91.55
2016-05-18T00:04:28.270Z,91.84
2016-05-18T00:04:38.270Z,91.84
2016-05-18T00:04:48.270Z,91.74
2016-05-18T00:04:58.286Z,91.55
2016-05-18T00:05:08.289Z,91.74
2016-05-18T00:05:18.289Z,91.36
2016-05-18T00:05:28.305Z,91.36
2016-05-18T00:05:38.305Z,91.65
2016-05-18T00:05:48.305Z,91.55
2016-05-18T00:05:58.320Z,91.55
2016-05-18T00:06:08.322Z,91.55
2016-05-18T00:06:18.322Z,91.46
2016-05-18T00:06:28.338Z,91.55
2016-05-18T00:06:38.322Z,91.65
2016-05-18T00:06:48.338Z,91.46
2016-05-18T00:06:58.338Z,91.55
2016-05-18T00:07:08.341Z,91.65
2016-05-18T00:07:18.888Z,91.65
2016-05-18T00:07:28.357Z,91.65
2016-05-18T00:07:38.747Z,91.55
2016-05-18T00:07:48.372Z,91.55
2016-05-18T00:07:58.372Z,91.55
2016-05-18T00:08:08.374Z,91.65
2016-05-18T00:08:18.374Z,91.46
2016-05-18T00:08:28.390Z,91.55
2016-05-18T00:08:38.390Z,91.84
2016-05-18T00:08:48.390Z,91.94
2016-05-18T00:08:58.405Z,91.94
2016-05-18T00:09:08.408Z,91.94
2016-05-18T00:09:18.408Z,91.65
2016-05-18T00:09:28.408Z,91.74
2016-05-18T00:09:38.424Z,92.13
2016-05-18T00:09:48.424Z,92.13
2016-05-18T00:09:58.424Z,92.22
2016-05-18T00:10:08.443Z,92.03
2016-05-18T00:10:18.443Z,91.94
2016-05-18T00:10:28.443Z,92.13
2016-05-18T00:10:38.458Z,92.22
2016-05-18T00:10:48.458Z,92.13
2016-05-18T00:10:58.458Z,92.13
2016-05-18T00:11:08.461Z,91.74
2016-05-18T00:11:18.477Z,91.84
2016-05-18T00:11:28.477Z,92.41
2016-05-18T00:11:38.477Z,92.41
2016-05-18T00:11:48.493Z,92.32
2016-05-18T00:11:58.493Z,92.13
2016-05-18T00:12:08.495Z,92.69
2016-05-18T00:12:18.495Z,92.79
2016-05-18T00:12:28.510Z,92.6
2016-05-18T00:12:38.510Z,92.69
2016-05-18T00:12:48.510Z,92.6
2016-05-18T00:12:58.526Z,92.5
2016-05-18T00:13:08.529Z,92.32
2016-05-18T00:13:18.529Z,92.6
2016-05-18T00:13:28.544Z,92.41
2016-05-18T00:13:38.544Z,92.6
2016-05-18T00:13:48.544Z,92.32
2016-05-18T00:13:58.544Z,92.89
2016-05-18T00:14:08.563Z,92.6
2016-05-18T00:14:18.563Z,92.74
2016-05-18T00:14:28.563Z,92.69
2016-05-18T00:14:38.579Z,92.89
2016-05-18T00:14:48.579Z,92.5
2016-05-18T00:14:58.579Z,92.69
2016-05-18T00:15:08.581Z,92.79
2016-05-18T00:15:18.596Z,92.79
2016-05-18T00:15:28.596Z,92.69
2016-05-18T00:15:38.596Z,92.6
2016-05-18T00:15:48.612Z,93.03
2016-05-18T00:15:58.612Z,92.94
2016-05-18T00:16:08.615Z,93.03
2016-05-18T00:16:18.615Z,92.84
2016-05-18T00:16:28.631Z,93.41
2016-05-18T00:16:38.631Z,93.08
2016-05-18T00:16:48.631Z,93.32
2016-05-18T00:16:58.646Z,93.08
2016-05-18T00:17:08.665Z,93.32
2016-05-18T00:17:18.649Z,93.13
2016-05-18T00:17:28.665Z,93.41
2016-05-18T00:17:38.665Z,93.03
2016-05-18T00:17:48.680Z,93.17
2016-05-18T00:17:58.665Z,93.17
2016-05-18T00:18:08.683Z,93.13
2016-05-18T00:18:18.683Z,93.32
2016-05-18T00:18:28.683Z,93.22
2016-05-18T00:18:38.699Z,93.7
2016-05-18T00:18:48.699Z,93.6
2016-05-18T00:18:58.699Z,93.79
2016-05-18T00:19:08.701Z,93.7
2016-05-18T00:19:18.717Z,94.08
2016-05-18T00:19:28.717Z,94.08
2016-05-18T00:19:38.717Z,94.17
2016-05-18T00:19:48.732Z,93.89
2016-05-18T00:19:58.732Z,93.79
2016-05-18T00:20:08.735Z,93.98
2016-05-18T00:20:18.751Z,94.08
2016-05-18T00:20:28.751Z,94.17
2016-05-18T00:20:38.751Z,94.17
2016-05-18T00:20:48.751Z,93.98
2016-05-18T00:20:58.767Z,93.89
2016-05-18T00:21:08.769Z,93.98
2016-05-18T00:21:18.769Z,94.65
2016-05-18T00:21:28.784Z,94.46
2016-05-18T00:21:38.784Z,94.46
2016-05-18T00:21:48.784Z,94.65
2016-05-18T00:21:58.800Z,94.74
2016-05-18T00:22:08.803Z,94.65
2016-05-18T00:22:19.131Z,94.56
2016-05-18T00:22:28.818Z,94.93
2016-05-18T00:22:38.834Z,94.46
2016-05-18T00:22:48.818Z,94.56
2016-05-18T00:22:59.240Z,94.65
2016-05-18T00:23:08.821Z,94.65
2016-05-18T00:23:18.853Z,94.56
2016-05-18T00:23:28.837Z,94.56
2016-05-18T00:23:38.837Z,94.65
2016-05-18T00:23:48.853Z,94.46
2016-05-18T00:23:58.853Z,94.56
2016-05-18T00:24:08.855Z,94.93
2016-05-18T00:24:18.870Z,94.74
2016-05-18T00:24:28.870Z,95.03
2016-05-18T00:24:38.870Z,94.46
2016-05-18T00:24:48.870Z,95.12
2016-05-18T00:24:58.886Z,95.03
2016-05-18T00:25:08.890Z,95.12
2016-05-18T00:25:18.890Z,95.32
2016-05-18T00:25:28.890Z,95.51
2016-05-18T00:25:38.906Z,95.6
2016-05-18T00:25:48.906Z,95.98
2016-05-18T00:25:58.906Z,95.79
2016-05-18T00:26:08.923Z,95.79
2016-05-18T00:26:18.923Z,95.89
2016-05-18T00:26:28.923Z,96.08
2016-05-18T00:26:38.939Z,95.79
2016-05-18T00:26:48.939Z,95.79
2016-05-18T00:26:58.939Z,96.36
2016-05-18T00:27:08.956Z,96.27
2016-05-18T00:27:18.956Z,96.36
2016-05-18T00:27:28.956Z,96.36
2016-05-18T00:27:38.956Z,96.27
2016-05-18T00:27:48.972Z,96.36
2016-05-18T00:27:58.972Z,96.27
2016-05-18T00:28:08.975Z,96.36
2016-05-18T00:28:18.975Z,96.17
2016-05-18T00:28:28.991Z,96.17
2016-05-18T00:28:38.991Z,95.6
2016-05-18T00:28:48.991Z,95.6
2016-05-18T00:28:59.006Z,96.17
2016-05-18T00:29:09.009Z,95.6
2016-05-18T00:29:19.009Z,95.7
2016-05-18T00:29:29.009Z,95.79
2016-05-18T00:29:39.025Z,95.6
2016-05-18T00:29:49.025Z,95.6
2016-05-18T00:29:59.025Z,95.51
2016-05-18T00:30:09.044Z,95.79
2016-05-18T00:30:19.044Z,95.7
2016-05-18T00:30:29.044Z,95.7
2016-05-18T00:30:39.044Z,95.79
2016-05-18T00:30:49.059Z,95.6
2016-05-18T00:30:59.059Z,95.6
2016-05-18T00:31:09.061Z,95.79
2016-05-18T00:31:19.077Z,95.79
2016-05-18T00:31:29.077Z,95.6
2016-05-18T00:31:39.077Z,95.6
2016-05-18T00:31:49.077Z,95.79
2016-05-18T00:31:59.092Z,95.79
2016-05-18T00:32:09.096Z,95.79
2016-05-18T00:32:19.096Z,95.51
2016-05-18T00:32:29.112Z,95.7
2016-05-18T00:32:39.112Z,95.79
2016-05-18T00:32:49.112Z,96.17
2016-05-18T00:32:59.112Z,96.17
2016-05-18T00:33:09.130Z,96.17
2016-05-18T00:33:19.130Z,96.08
2016-05-18T00:33:29.145Z,96.27
2016-05-18T00:33:39.145Z,96.08
2016-05-18T00:33:49.145Z,96.27
2016-05-18T00:33:59.145Z,95.79
2016-05-18T00:34:09.163Z,95.79
2016-05-18T00:34:19.163Z,96.17
2016-05-18T00:34:29.163Z,96.36
2016-05-18T00:34:39.163Z,96.17
2016-05-18T00:34:49.179Z,96.36
2016-05-18T00:34:59.179Z,96.36
2016-05-18T00:35:09.182Z,96.27
2016-05-18T00:35:19.197Z,96.17
2016-05-18T00:35:29.197Z,96.27
2016-05-18T00:35:39.197Z,95.6
2016-05-18T00:35:49.197Z,96.17
2016-05-18T00:35:59.213Z,96.17
2016-05-18T00:36:09.216Z,95.7
2016-05-18T00:36:19.216Z,95.6
2016-05-18T00:36:29.216Z,95.79
2016-05-18T00:36:39.231Z,95.6
2016-05-18T00:36:49.231Z,96.08
2016-05-18T00:36:59.231Z,96.17
2016-05-18T00:37:09.249Z,96.36
2016-05-18T00:37:19.249Z,96.27
2016-05-18T00:37:29.280Z,95.7
2016-05-18T00:37:39.265Z,96.17
2016-05-18T00:37:49.265Z,95.79
2016-05-18T00:37:59.265Z,96.17
2016-05-18T00:38:09.269Z,96.36
2016-05-18T00:38:19.284Z,96.17
2016-05-18T00:38:29.284Z,96.27
2016-05-18T00:38:39.284Z,96.27
2016-05-18T00:38:49.300Z,96.36
2016-05-18T00:38:59.300Z,95.98
2016-05-18T00:39:09.302Z,96.17
2016-05-18T00:39:19.302Z,96.08
2016-05-18T00:39:29.318Z,96.17
2016-05-18T00:39:39.318Z,96.08
2016-05-18T00:39:49.333Z,95.7
2016-05-18T00:39:59.333Z,95.79
2016-05-18T00:40:09.335Z,95.79
2016-05-18T00:40:19.335Z,96.08
2016-05-18T00:40:29.335Z,96.17
2016-05-18T00:40:39.351Z,96.27
2016-05-18T00:40:49.351Z,96.27
2016-05-18T00:40:59.351Z,96.08
2016-05-18T00:41:09.370Z,96.27
2016-05-18T00:41:19.370Z,95.98
2016-05-18T00:41:29.370Z,96.08
2016-05-18T00:41:39.370Z,95.98
2016-05-18T00:41:49.386Z,95.89
2016-05-18T00:41:59.386Z,96.27
2016-05-18T00:42:09.388Z,96.36
2016-05-18T00:42:19.388Z,95.6
2016-05-18T00:42:29.404Z,95.6
2016-05-18T00:42:39.404Z,95.79
2016-05-18T00:42:49.404Z,95.79
2016-05-18T00:42:59.419Z,95.7
2016-05-18T00:43:09.421Z,95.7
2016-05-18T00:43:19.421Z,95.98
2016-05-18T00:43:29.437Z,95.89
2016-05-18T00:43:39.437Z,96.08
2016-05-18T00:43:49.437Z,95.89
2016-05-18T00:43:59.453Z,95.98
2016-05-18T00:44:09.457Z,95.79
2016-05-18T00:44:19.457Z,95.7
2016-05-18T00:44:29.457Z,95.6
2016-05-18T00:44:39.472Z,95.51
2016-05-18T00:44:49.472Z,95.79
2016-05-18T00:44:59.472Z,95.79
2016-05-18T00:45:09.474Z,95.89
2016-05-18T00:45:19.490Z,95.98
2016-05-18T00:45:29.505Z,95.89
2016-05-18T00:45:39.505Z,95.79
2016-05-18T00:45:49.505Z,96.08
2016-05-18T00:45:59.505Z,95.79
2016-05-18T00:46:09.508Z,95.7
2016-05-18T00:46:19.555Z,95.89
2016-05-18T00:46:29.540Z,95.89
2016-05-18T00:46:39.524Z,95.89
2016-05-18T00:46:49.524Z,95.89
2016-05-18T00:46:59.540Z,96.08
2016-05-18T00:47:18.479Z,95.89
2016-05-18T00:47:28.448Z,96.08
2016-05-18T00:47:38.479Z,95.98
2016-05-18T00:47:48.464Z,95.32
2016-05-18T00:47:58.464Z,95.51
2016-05-18T00:48:08.482Z,95.46
2016-05-18T00:48:18.498Z,95.51
2016-05-18T00:48:29.263Z,95.32
2016-05-18T00:48:38.482Z,95.51
2016-05-18T00:48:48.498Z,95.6
2016-05-18T00:48:58.498Z,95.32
2016-05-18T00:49:08.500Z,95.22
2016-05-18T00:49:18.500Z,95.22
2016-05-18T00:49:28.515Z,95.51
2016-05-18T00:49:38.515Z,95.12
2016-05-18T00:49:48.515Z,94.84
2016-05-18T00:49:58.531Z,94.93
2016-05-18T00:50:08.535Z,95.08
2016-05-18T00:50:18.535Z,94.79
2016-05-18T00:50:28.535Z,95.12
2016-05-18T00:50:38.551Z,95.03
2016-05-18T00:50:48.551Z,94.98
2016-05-18T00:50:58.551Z,95.08
2016-05-18T00:51:08.553Z,95.27
2016-05-18T00:51:18.568Z,95.27
2016-05-18T00:51:28.568Z,95.36
2016-05-18T00:51:38.584Z,94.51
2016-05-18T00:51:48.584Z,94.89
2016-05-18T00:51:58.584Z,94.79
2016-05-18T00:52:08.587Z,94.7
2016-05-18T00:52:18.603Z,94.98
2016-05-18T00:52:28.603Z,94.7
2016-05-18T00:52:38.603Z,94.89
2016-05-18T00:52:48.603Z,94.6
2016-05-18T00:52:58.618Z,94.89
2016-05-18T00:53:08.621Z,94.7
2016-05-18T00:53:18.621Z,94.7
2016-05-18T00:53:28.637Z,94.89
2016-05-18T00:53:38.637Z,94.89
2016-05-18T00:53:48.637Z,94.51
2016-05-18T00:53:58.637Z,94.6
2016-05-18T00:54:08.654Z,94.6
2016-05-18T00:54:18.654Z,94.79
2016-05-18T00:54:28.654Z,94.98
2016-05-18T00:54:38.670Z,94.7
2016-05-18T00:54:48.670Z,94.98
2016-05-18T00:54:58.670Z,94.79
2016-05-18T00:55:08.673Z,94.7
2016-05-18T00:55:18.689Z,94.89
2016-05-18T00:55:28.689Z,94.79
2016-05-18T00:55:38.689Z,94.7
2016-05-18T00:55:48.704Z,94.6
2016-05-18T00:55:58.704Z,94.89
2016-05-18T00:56:08.706Z,94.79
2016-05-18T00:56:18.722Z,95.17
2016-05-18T00:56:28.722Z,95.27
2016-05-18T00:56:38.722Z,95.17
2016-05-18T00:56:48.722Z,95.27
2016-05-18T00:56:58.738Z,95.08
2016-05-18T00:57:08.741Z,95.08
2016-05-18T00:57:18.741Z,94.89
2016-05-18T00:57:28.741Z,94.98
2016-05-18T00:57:38.756Z,94.98
2016-05-18T00:57:48.756Z,94.98
2016-05-18T00:57:58.756Z,95.17
2016-05-18T00:58:08.759Z,94.89
2016-05-18T00:58:18.775Z,95.08
2016-05-18T00:58:28.775Z,94.89
2016-05-18T00:58:38.775Z,94.89
2016-05-18T00:58:48.790Z,95.36
2016-05-18T00:58:58.790Z,95.27
2016-05-18T00:59:08.793Z,95.36
2016-05-18T00:59:18.809Z,95.17
2016-05-18T00:59:28.809Z,95.17
2016-05-18T00:59:38.825Z,94.98
2016-05-18T00:59:48.840Z,95.08
2016-05-18T00:59:58.825Z,94.98
2016-05-18T01:00:08.827Z,95.17
2016-05-18T01:00:18.827Z,95.17
2016-05-18T01:00:28.842Z,95.75
2016-05-18T01:00:38.842Z,95.08
2016-05-18T01:00:48.842Z,95.17
2016-05-18T01:00:58.858Z,95.17
2016-05-18T01:01:08.861Z,94.98
2016-05-18T01:01:18.861Z,95.17
2016-05-18T01:01:28.877Z,94.89
2016-05-18T01:01:38.877Z,94.98
2016-05-18T01:01:48.877Z,95.17
2016-05-18T01:01:58.877Z,94.98
2016-05-18T01:02:08.895Z,95.08
2016-05-18T01:02:18.895Z,94.89
2016-05-18T01:02:28.895Z,95.46
2016-05-18T01:02:38.911Z,95.46
2016-05-18T01:02:48.911Z,95.46
2016-05-18T01:02:58.911Z,95.56
2016-05-18T01:03:08.913Z,95.27
2016-05-18T01:03:18.928Z,95.56
2016-05-18T01:03:28.928Z,95.36
2016-05-18T01:03:38.928Z,96.03
2016-05-18T01:03:48.944Z,95.84
2016-05-18T01:03:58.944Z,95.84
2016-05-18T01:04:08.947Z,95.75
2016-05-18T01:04:18.947Z,95.84
2016-05-18T01:04:28.963Z,95.84
2016-05-18T01:04:38.963Z,95.84
2016-05-18T01:04:48.963Z,95.94
2016-05-18T01:04:58.963Z,95.84
2016-05-18T01:05:08.981Z,95.84
2016-05-18T01:05:18.981Z,95.65
2016-05-18T01:05:28.981Z,95.65
2016-05-18T01:05:38.997Z,96.12
2016-05-18T01:05:48.997Z,95.94
2016-05-18T01:05:58.997Z,95.84
2016-05-18T01:06:09.000Z,95.94
2016-05-18T01:06:19.016Z,95.94
2016-05-18T01:06:29.016Z,95.94
2016-05-18T01:06:39.031Z,96.12
2016-05-18T01:06:49.031Z,95.94
2016-05-18T01:06:59.031Z,96.03
2016-05-18T01:07:09.033Z,96.12
2016-05-18T01:07:19.033Z,95.94
2016-05-18T01:07:29.064Z,95.56
2016-05-18T01:07:39.049Z,95.65
2016-05-18T01:07:49.080Z,95.75
2016-05-18T01:07:59.064Z,95.84
2016-05-18T01:08:09.067Z,95.79
2016-05-18T01:08:19.067Z,95.65
2016-05-18T01:08:29.067Z,95.84
2016-05-18T01:08:39.083Z,95.84
2016-05-18T01:08:49.083Z,95.65
2016-05-18T01:08:59.083Z,95.84
2016-05-18T01:09:09.102Z,95.61
2016-05-18T01:09:19.102Z,95.84
2016-05-18T01:09:29.102Z,95.65
2016-05-18T01:09:39.117Z,95.84
2016-05-18T01:09:49.117Z,95.89
2016-05-18T01:09:59.117Z,95.84
2016-05-18T01:10:09.119Z,96.03
2016-05-18T01:10:19.135Z,95.98
2016-05-18T01:10:29.135Z,96.08
2016-05-18T01:10:39.135Z,95.98
2016-05-18T01:10:49.151Z,96.12
2016-05-18T01:10:59.151Z,95.98
2016-05-18T01:11:09.154Z,95.98
2016-05-18T01:11:19.154Z,95.98
2016-05-18T01:11:29.169Z,95.98
2016-05-18T01:11:39.169Z,95.89
2016-05-18T01:11:49.169Z,95.89
2016-05-18T01:11:59.169Z,96.17
2016-05-18T01:12:09.187Z,95.41
2016-05-18T01:12:19.187Z,95.51
2016-05-18T01:12:29.187Z,95.61
2016-05-18T01:12:39.202Z,95.51
2016-05-18T01:12:49.202Z,95.32
2016-05-18T01:12:59.202Z,95.41
2016-05-18T01:13:09.222Z,95.41
2016-05-18T01:13:19.222Z,95.51
2016-05-18T01:13:29.222Z,95.22
2016-05-18T01:13:39.238Z,95.12
2016-05-18T01:13:49.238Z,95.03
2016-05-18T01:13:59.238Z,94.93
2016-05-18T01:14:09.255Z,95.12
2016-05-18T01:14:19.255Z,95.03
2016-05-18T01:14:29.255Z,95.32
2016-05-18T01:14:39.271Z,94.84
2016-05-18T01:14:49.255Z,95.12
2016-05-18T01:14:59.271Z,95.22
2016-05-18T01:15:09.273Z,95.12
2016-05-18T01:15:19.289Z,95.22
2016-05-18T01:15:29.289Z,95.12
2016-05-18T01:15:39.289Z,95.12
2016-05-18T01:15:49.289Z,95.12
2016-05-18T01:15:59.304Z,95.32
2016-05-18T01:16:09.307Z,95.22
2016-05-18T01:16:19.307Z,95.41
2016-05-18T01:16:29.323Z,95.22
2016-05-18T01:16:39.323Z,95.32
2016-05-18T01:16:49.323Z,95.12
2016-05-18T01:16:59.323Z,95.22
2016-05-18T01:17:09.341Z,95.12
2016-05-18T01:17:19.341Z,95.32
2016-05-18T01:17:29.341Z,95.12
2016-05-18T01:17:39.357Z,95.41
2016-05-18T01:17:49.357Z,95.32
2016-05-18T01:17:59.357Z,95.32
2016-05-18T01:18:09.360Z,94.74
2016-05-18T01:18:19.376Z,95.41
2016-05-18T01:18:29.376Z,95.41
2016-05-18T01:18:39.376Z,94.46
2016-05-18T01:18:49.391Z,94.46
2016-05-18T01:18:59.391Z,94.46
2016-05-18T01:19:09.393Z,94.74
2016-05-18T01:19:19.393Z,94.84
2016-05-18T01:19:29.409Z,94.65
2016-05-18T01:19:39.409Z,94.84
2016-05-18T01:19:49.409Z,94.84
2016-05-18T01:19:59.425Z,94.74
2016-05-18T01:20:09.429Z,94.65
2016-05-18T01:20:19.429Z,94.74
2016-05-18T01:20:29.429Z,94.65
2016-05-18T01:20:39.444Z,95.03
2016-05-18T01:20:49.444Z,95.03
2016-05-18T01:20:59.444Z,94.74
2016-05-18T01:21:09.462Z,95.03
2016-05-18T01:21:19.462Z,94.84
2016-05-18T01:21:29.462Z,94.74
2016-05-18T01:21:39.477Z,94.84
2016-05-18T01:21:49.477Z,94.46
2016-05-18T01:21:59.477Z,94.56
2016-05-18T01:22:09.480Z,95.03
2016-05-18T01:22:19.496Z,95.12
2016-05-18T01:22:29.605Z,94.56
2016-05-18T01:22:39.496Z,94.74
2016-05-18T01:22:49.512Z,94.56
2016-05-18T01:23:00.105Z,94.56
2016-05-18T01:23:09.514Z,94.46
2016-05-18T01:23:19.514Z,94.65
2016-05-18T01:23:29.529Z,94.65
2016-05-18T01:23:39.529Z,94.65
2016-05-18T01:23:49.529Z,94.56
2016-05-18T01:23:59.545Z,94.37
2016-05-18T01:24:09.547Z,94.56
2016-05-18T01:24:19.547Z,94.37
2016-05-18T01:24:29.547Z,94.74
2016-05-18T01:24:39.563Z,94.74
2016-05-18T01:24:49.563Z,94.65
2016-05-18T01:24:59.563Z,94.56
2016-05-18T01:25:09.582Z,94.74
2016-05-18T01:25:19.582Z,94.65
2016-05-18T01:25:29.582Z,94.56
2016-05-18T01:25:39.582Z,94.74
2016-05-18T01:25:49.598Z,94.37
2016-05-18T01:25:59.598Z,94.84
2016-05-18T01:26:09.600Z,94.65
2016-05-18T01:26:19.615Z,94.65
2016-05-18T01:26:29.615Z,94.65
2016-05-18T01:26:39.615Z,94.37
2016-05-18T01:26:49.631Z,94.65
2016-05-18T01:26:59.631Z,94.17
2016-05-18T01:27:09.634Z,94.56
2016-05-18T01:27:19.650Z,94.46
2016-05-18T01:27:29.650Z,94.46
2016-05-18T01:27:39.650Z,94.46
2016-05-18T01:27:49.650Z,94.56
2016-05-18T01:27:59.665Z,94.37
2016-05-18T01:28:09.668Z,94.56
2016-05-18T01:28:19.668Z,94.65
2016-05-18T01:28:29.668Z,94.74
2016-05-18T01:28:39.684Z,94.84
2016-05-18T01:28:49.684Z,94.27
2016-05-18T01:28:59.684Z,93.79
2016-05-18T01:29:09.702Z,94.08
2016-05-18T01:29:19.702Z,94.08
2016-05-18T01:29:29.702Z,94.08
2016-05-18T01:29:39.702Z,94.08
2016-05-18T01:29:49.717Z,94.27
2016-05-18T01:29:59.717Z,94.17
2016-05-18T01:30:09.720Z,93.98
2016-05-18T01:30:19.736Z,93.7
2016-05-18T01:30:29.736Z,93.7
2016-05-18T01:30:39.736Z,93.79
2016-05-18T01:30:49.767Z,93.7
2016-05-18T01:30:59.751Z,93.79
2016-05-18T01:31:09.753Z,93.32
2016-05-18T01:31:19.753Z,93.41
2016-05-18T01:31:29.769Z,93.32
2016-05-18T01:31:39.769Z,93.41
2016-05-18T01:31:49.769Z,93.41
2016-05-18T01:31:59.785Z,93.41
2016-05-18T01:32:09.789Z,93.51
2016-05-18T01:32:19.789Z,93.41
2016-05-18T01:32:29.789Z,93.6
2016-05-18T01:32:39.804Z,93.32
2016-05-18T01:32:49.804Z,93.12
2016-05-18T01:32:59.804Z,93.41
2016-05-18T01:33:09.822Z,93.12
2016-05-18T01:33:19.822Z,93.03
2016-05-18T01:33:29.838Z,93.03
2016-05-18T01:33:39.838Z,93.08
2016-05-18T01:33:49.838Z,92.93
2016-05-18T01:33:59.838Z,93.22
2016-05-18T01:34:09.841Z,93.41
2016-05-18T01:34:19.856Z,93.88
2016-05-18T01:34:29.856Z,93.6
2016-05-18T01:34:39.856Z,93.41
2016-05-18T01:34:49.856Z,93.51
2016-05-18T01:34:59.872Z,93.51
2016-05-18T01:35:09.874Z,93.6
2016-05-18T01:35:19.874Z,93.41
2016-05-18T01:35:29.889Z,93.41
2016-05-18T01:35:39.889Z,93.46
2016-05-18T01:35:49.889Z,93.41
2016-05-18T01:35:59.905Z,93.22
2016-05-18T01:36:09.908Z,93.41
2016-05-18T01:36:19.908Z,93.12
2016-05-18T01:36:29.908Z,93.51
2016-05-18T01:36:39.924Z,93.6
2016-05-18T01:36:49.924Z,93.46
2016-05-18T01:36:59.924Z,93.41
2016-05-18T01:37:09.942Z,93.6
2016-05-18T01:37:19.942Z,93.65
2016-05-18T01:37:29.942Z,93.74
2016-05-18T01:37:39.958Z,93.65
2016-05-18T01:37:49.958Z,93.27
2016-05-18T01:37:59.958Z,93.12
2016-05-18T01:38:10.007Z,92.98
2016-05-18T01:38:19.976Z,92.93
2016-05-18T01:38:29.976Z,93.08
2016-05-18T01:38:39.976Z,93.08
2016-05-18T01:38:49.991Z,93.27
2016-05-18T01:38:59.991Z,93.08
2016-05-18T01:39:09.994Z,92.79
2016-05-18T01:39:20.010Z,92.69
2016-05-18T01:39:30.010Z,92.79
2016-05-18T01:39:40.010Z,92.98
2016-05-18T01:39:50.010Z,92.69
2016-05-18T01:40:00.025Z,92.88
2016-05-18T01:40:10.028Z,92.88
2016-05-18T01:40:20.028Z,92.88
2016-05-18T01:40:30.028Z,92.88
2016-05-18T01:40:40.044Z,92.88
2016-05-18T01:40:50.044Z,92.5
2016-05-18T01:41:00.044Z,92.69
2016-05-18T01:41:10.063Z,92.88
2016-05-18T01:41:20.063Z,92.41
2016-05-18T01:41:30.063Z,92.41
2016-05-18T01:41:40.078Z,92.5
2016-05-18T01:41:50.078Z,92.5
2016-05-18T01:42:00.078Z,91.74
2016-05-18T01:42:10.080Z,92.22
2016-05-18T01:42:20.096Z,92.12
2016-05-18T01:42:30.096Z,92.03
2016-05-18T01:42:40.096Z,91.93
2016-05-18T01:42:50.112Z,92.12
2016-05-18T01:43:00.112Z,92.03
2016-05-18T01:43:10.115Z,92.03
2016-05-18T01:43:20.130Z,92.41
2016-05-18T01:43:30.130Z,92.32
2016-05-18T01:43:40.130Z,92.22
2016-05-18T01:43:50.130Z,92.22
2016-05-18T01:44:00.146Z,91.83
2016-05-18T01:44:10.149Z,91.74
2016-05-18T01:44:20.149Z,91.64
2016-05-18T01:44:30.164Z,91.83
2016-05-18T01:44:40.164Z,91.93
2016-05-18T01:44:50.164Z,91.83
2016-05-18T01:45:00.164Z,91.55
2016-05-18T01:45:10.182Z,91.74
2016-05-18T01:45:20.182Z,91.93
2016-05-18T01:45:30.182Z,91.74
2016-05-18T01:45:40.198Z,91.83
2016-05-18T01:45:50.198Z,91.93
2016-05-18T01:46:00.198Z,91.17
2016-05-18T01:46:10.216Z,91.27
2016-05-18T01:46:20.216Z,91.17
2016-05-18T01:46:30.216Z,91.17
2016-05-18T01:46:40.216Z,91.36
2016-05-18T01:46:50.232Z,91.36
2016-05-18T01:47:00.232Z,91.46
2016-05-18T01:47:10.235Z,91.74
2016-05-18T01:47:20.251Z,91.36
2016-05-18T01:47:30.251Z,91.64
2016-05-18T01:47:40.251Z,91.07
2016-05-18T01:47:50.266Z,90.98
2016-05-18T01:48:00.266Z,91.17
2016-05-18T01:48:10.269Z,91.07
2016-05-18T01:48:20.285Z,91.17
2016-05-18T01:48:30.285Z,91.07
2016-05-18T01:48:40.285Z,91.17
2016-05-18T01:48:50.285Z,91.17
2016-05-18T01:49:00.300Z,91.83
2016-05-18T01:49:10.302Z,91.55
2016-05-18T01:49:20.302Z,91.46
2016-05-18T01:49:30.302Z,91.36
2016-05-18T01:49:40.318Z,91.83
2016-05-18T01:49:50.318Z,91.55
2016-05-18T01:50:00.318Z,91.46
2016-05-18T01:50:10.337Z,91.55
2016-05-18T01:50:20.337Z,91.36
2016-05-18T01:50:30.337Z,91.74
2016-05-18T01:50:40.352Z,91.36
2016-05-18T01:50:50.352Z,91.36
2016-05-18T01:51:00.352Z,91.36
2016-05-18T01:51:10.354Z,91.36
2016-05-18T01:51:20.370Z,91.27
2016-05-18T01:51:30.370Z,91.55
2016-05-18T01:51:40.370Z,91.55
2016-05-18T01:51:50.386Z,91.46
2016-05-18T01:52:00.386Z,91.55
2016-05-18T01:52:10.389Z,91.55
2016-05-18T01:52:20.404Z,91.64
2016-05-18T01:52:30.404Z,90.98
2016-05-18T01:52:40.404Z,91.55
2016-05-18T01:52:50.404Z,91.07
2016-05-18T01:53:00.498Z,91.17
2016-05-18T01:53:10.423Z,91.27
2016-05-18T01:53:20.438Z,91.07
2016-05-18T01:53:30.454Z,91.07
2016-05-18T01:53:40.438Z,91.17
2016-05-18T01:53:50.438Z,90.98
2016-05-18T01:54:00.438Z,91.07
2016-05-18T01:54:10.456Z,91.17
2016-05-18T01:54:20.456Z,91.07
2016-05-18T01:54:30.456Z,90.98
2016-05-18T01:54:40.456Z,91.07
2016-05-18T01:54:50.472Z,90.98
2016-05-18T01:55:00.472Z,91.17
2016-05-18T01:55:10.490Z,91.07
2016-05-18T01:55:20.490Z,91.17
2016-05-18T01:55:30.490Z,91.07
2016-05-18T01:55:40.490Z,91.27
2016-05-18T01:55:50.506Z,91.17
2016-05-18T01:56:00.506Z,91.27
2016-05-18T01:56:10.509Z,91.17
2016-05-18T01:56:20.509Z,91.17
2016-05-18T01:56:30.525Z,91.17
2016-05-18T01:56:40.525Z,91.27
2016-05-18T01:56:50.525Z,91.17
2016-05-18T01:57:00.540Z,91.17
2016-05-18T01:57:10.543Z,91.17
2016-05-18T01:57:20.543Z,91.07
2016-05-18T01:57:30.559Z,91.27
2016-05-18T01:57:40.559Z,91.07
2016-05-18T01:57:50.559Z,91.07
2016-05-18T01:58:00.574Z,91.27
2016-05-18T01:58:10.576Z,91.27
2016-05-18T01:58:20.576Z,91.27
2016-05-18T01:58:30.592Z,91.36
2016-05-18T01:58:40.592Z,90.88
2016-05-18T01:58:50.592Z,90.69
2016-05-18T01:59:00.592Z,90.5
2016-05-18T01:59:10.611Z,90.79
2016-05-18T01:59:20.611Z,90.69
2016-05-18T01:59:30.611Z,90.22
2016-05-18T01:59:40.626Z,90.5
2016-05-18T01:59:50.626Z,90.59
2016-05-18T02:00:00.626Z,90.41
2016-05-18T02:00:10.629Z,90.5
2016-05-18T02:00:20.645Z,90.5
2016-05-18T02:00:30.645Z,90.5
2016-05-18T02:00:40.645Z,90.59
2016-05-18T02:00:50.661Z,90.59
2016-05-18T02:01:00.661Z,90.03
2016-05-18T02:01:10.663Z,90.22
2016-05-18T02:01:20.663Z,90.22
2016-05-18T02:01:30.678Z,90.12
2016-05-18T02:01:40.678Z,90.22
2016-05-18T02:01:50.678Z,90.22
2016-05-18T02:02:00.694Z,90.03
2016-05-18T02:02:10.698Z,89.93
2016-05-18T02:02:20.698Z,90.22
2016-05-18T02:02:30.698Z,90.41
2016-05-18T02:02:40.713Z,90.41
2016-05-18T02:02:50.713Z,90.41
2016-05-18T02:03:00.729Z,89.74
2016-05-18T02:03:10.731Z,89.74
2016-05-18T02:03:20.731Z,89.54
2016-05-18T02:03:30.731Z,89.54
2016-05-18T02:03:40.747Z,89.45
2016-05-18T02:03:50.747Z,89.45
2016-05-18T02:04:00.747Z,89.83
2016-05-18T02:04:10.764Z,90.03
2016-05-18T02:04:20.764Z,89.74
2016-05-18T02:04:30.764Z,89.74
2016-05-18T02:04:40.764Z,90.22
2016-05-18T02:04:50.780Z,90.12
2016-05-18T02:05:00.780Z,89.83
2016-05-18T02:05:10.783Z,89.74
2016-05-18T02:05:20.799Z,89.74
2016-05-18T02:05:30.799Z,89.88
2016-05-18T02:05:40.799Z,89.36
2016-05-18T02:05:50.799Z,89.54
2016-05-18T02:06:00.814Z,89.54
2016-05-18T02:06:10.817Z,89.17
2016-05-18T02:06:20.817Z,89.17
2016-05-18T02:06:30.833Z,89.21
2016-05-18T02:06:40.833Z,89.45
2016-05-18T02:06:50.833Z,89.36
2016-05-18T02:07:00.833Z,89.17
2016-05-18T02:07:10.850Z,89.07
2016-05-18T02:07:20.850Z,89.21
2016-05-18T02:07:30.850Z,88.98
2016-05-18T02:07:40.866Z,88.98
2016-05-18T02:07:50.929Z,88.98
2016-05-18T02:08:00.866Z,89.12
2016-05-18T02:08:10.885Z,88.88
2016-05-18T02:08:20.885Z,89.07
2016-05-18T02:08:30.885Z,88.88
2016-05-18T02:08:40.900Z,89.12
2016-05-18T02:08:50.900Z,89.17
2016-05-18T02:09:00.900Z,89.26
2016-05-18T02:09:10.903Z,89.21
2016-05-18T02:09:20.919Z,89.31